<?xml version="1.0" encoding="UTF-8" standalone="no" ?>
<gpx xmlns="http://www.topografix.com/GPX/1/1" xmlns:xsi="http://www.w3.org/2001/XMLSchema-instance" xsi:schemaLocation="http://www.topografix.com/GPX/1/1 http://www.topografix.com/GPX/1/1/gpx.xsd" version="1.1" creator="VisuGPX - https://www.visugpx.com">
  <metadata>
    <name>Boucle des crétes de St Jean de Vaulx</name>
  </metadata>
  <trk>
    <name><![CDATA[Boucle des cretes de St Jean de Vaulx.09.07.2024]]></name>
    <trkseg>
      <trkpt lat="45.01285" lon="5.75782">
        <ele>1041.73</ele>
        <time>2024-07-09T08:32:35Z</time>
      </trkpt>
      <trkpt lat="45.01294" lon="5.75782">
        <ele>1041.73</ele>
        <time>2024-07-09T08:33:08Z</time>
      </trkpt>
      <trkpt lat="45.01304" lon="5.7579">
        <ele>1040.76</ele>
        <time>2024-07-09T08:33:19Z</time>
      </trkpt>
      <trkpt lat="45.01315" lon="5.75814">
        <ele>1040.28</ele>
        <time>2024-07-09T08:33:38Z</time>
      </trkpt>
      <trkpt lat="45.01315" lon="5.75831">
        <ele>1039.32</ele>
        <time>2024-07-09T08:33:55Z</time>
      </trkpt>
      <trkpt lat="45.01296" lon="5.75838">
        <ele>1038.36</ele>
        <time>2024-07-09T08:34:18Z</time>
      </trkpt>
      <trkpt lat="45.01283" lon="5.75836">
        <ele>1037.4</ele>
        <time>2024-07-09T08:34:34Z</time>
      </trkpt>
      <trkpt lat="45.01255" lon="5.7583">
        <ele>1035.48</ele>
        <time>2024-07-09T08:34:57Z</time>
      </trkpt>
      <trkpt lat="45.01235" lon="5.75824">
        <ele>1034.52</ele>
        <time>2024-07-09T08:35:14Z</time>
      </trkpt>
      <trkpt lat="45.01238" lon="5.75839">
        <ele>1034.04</ele>
        <time>2024-07-09T08:35:36Z</time>
      </trkpt>
      <trkpt lat="45.01262" lon="5.75853">
        <ele>1032.59</ele>
        <time>2024-07-09T08:36:00Z</time>
      </trkpt>
      <trkpt lat="45.01283" lon="5.7586">
        <ele>1031.63</ele>
        <time>2024-07-09T08:36:18Z</time>
      </trkpt>
      <trkpt lat="45.01304" lon="5.7588">
        <ele>1031.15</ele>
        <time>2024-07-09T08:36:38Z</time>
      </trkpt>
      <trkpt lat="45.01324" lon="5.75896">
        <ele>1030.19</ele>
        <time>2024-07-09T08:36:57Z</time>
      </trkpt>
      <trkpt lat="45.01344" lon="5.75906">
        <ele>1029.71</ele>
        <time>2024-07-09T08:37:14Z</time>
      </trkpt>
      <trkpt lat="45.01367" lon="5.75921">
        <ele>1029.71</ele>
        <time>2024-07-09T08:37:36Z</time>
      </trkpt>
      <trkpt lat="45.01369" lon="5.75933">
        <ele>1029.23</ele>
        <time>2024-07-09T08:38:15Z</time>
      </trkpt>
      <trkpt lat="45.01349" lon="5.75924">
        <ele>1028.27</ele>
        <time>2024-07-09T08:38:33Z</time>
      </trkpt>
      <trkpt lat="45.01334" lon="5.75915">
        <ele>1027.31</ele>
        <time>2024-07-09T08:38:48Z</time>
      </trkpt>
      <trkpt lat="45.01313" lon="5.75913">
        <ele>1024.9</ele>
        <time>2024-07-09T08:39:08Z</time>
      </trkpt>
      <trkpt lat="45.01294" lon="5.75903">
        <ele>1023.94</ele>
        <time>2024-07-09T08:39:25Z</time>
      </trkpt>
      <trkpt lat="45.01271" lon="5.75898">
        <ele>1022.02</ele>
        <time>2024-07-09T08:39:42Z</time>
      </trkpt>
      <trkpt lat="45.01247" lon="5.75897">
        <ele>1020.58</ele>
        <time>2024-07-09T08:40:01Z</time>
      </trkpt>
      <trkpt lat="45.01224" lon="5.75893">
        <ele>1019.62</ele>
        <time>2024-07-09T08:40:20Z</time>
      </trkpt>
      <trkpt lat="45.012" lon="5.75886">
        <ele>1017.21</ele>
        <time>2024-07-09T08:40:41Z</time>
      </trkpt>
      <trkpt lat="45.01183" lon="5.7588">
        <ele>1015.77</ele>
        <time>2024-07-09T08:40:56Z</time>
      </trkpt>
      <trkpt lat="45.01167" lon="5.75875">
        <ele>1012.89</ele>
        <time>2024-07-09T08:41:10Z</time>
      </trkpt>
      <trkpt lat="45.01153" lon="5.75874">
        <ele>1012.89</ele>
        <time>2024-07-09T08:41:23Z</time>
      </trkpt>
      <trkpt lat="45.01132" lon="5.75889">
        <ele>1010</ele>
        <time>2024-07-09T08:41:44Z</time>
      </trkpt>
      <trkpt lat="45.01128" lon="5.75922">
        <ele>1008.56</ele>
        <time>2024-07-09T08:42:02Z</time>
      </trkpt>
      <trkpt lat="45.01116" lon="5.75957">
        <ele>1007.6</ele>
        <time>2024-07-09T08:42:24Z</time>
      </trkpt>
      <trkpt lat="45.01107" lon="5.7598">
        <ele>1006.64</ele>
        <time>2024-07-09T08:42:40Z</time>
      </trkpt>
      <trkpt lat="45.01094" lon="5.76009">
        <ele>1005.68</ele>
        <time>2024-07-09T08:43:00Z</time>
      </trkpt>
      <trkpt lat="45.01083" lon="5.76035">
        <ele>1005.2</ele>
        <time>2024-07-09T08:43:18Z</time>
      </trkpt>
      <trkpt lat="45.01069" lon="5.76067">
        <ele>1004.72</ele>
        <time>2024-07-09T08:43:39Z</time>
      </trkpt>
      <trkpt lat="45.01054" lon="5.76101">
        <ele>1004.23</ele>
        <time>2024-07-09T08:44:02Z</time>
      </trkpt>
      <trkpt lat="45.01042" lon="5.76135">
        <ele>1004.23</ele>
        <time>2024-07-09T08:44:23Z</time>
      </trkpt>
      <trkpt lat="45.01034" lon="5.76162">
        <ele>1003.75</ele>
        <time>2024-07-09T08:44:39Z</time>
      </trkpt>
      <trkpt lat="45.01023" lon="5.76176">
        <ele>1003.75</ele>
        <time>2024-07-09T08:44:51Z</time>
      </trkpt>
      <trkpt lat="45.01005" lon="5.76178">
        <ele>1005.2</ele>
        <time>2024-07-09T08:45:08Z</time>
      </trkpt>
      <trkpt lat="45.00992" lon="5.76172">
        <ele>1005.2</ele>
        <time>2024-07-09T08:45:20Z</time>
      </trkpt>
      <trkpt lat="45.00979" lon="5.76187">
        <ele>1005.2</ele>
        <time>2024-07-09T08:45:38Z</time>
      </trkpt>
      <trkpt lat="45.00965" lon="5.76219">
        <ele>1006.64</ele>
        <time>2024-07-09T08:46:03Z</time>
      </trkpt>
      <trkpt lat="45.00961" lon="5.76237">
        <ele>1008.08</ele>
        <time>2024-07-09T08:46:16Z</time>
      </trkpt>
      <trkpt lat="45.00959" lon="5.76254">
        <ele>1009.52</ele>
        <time>2024-07-09T08:46:30Z</time>
      </trkpt>
      <trkpt lat="45.00961" lon="5.76268">
        <ele>1010.48</ele>
        <time>2024-07-09T08:46:48Z</time>
      </trkpt>
      <trkpt lat="45.00965" lon="5.76288">
        <ele>1012.41</ele>
        <time>2024-07-09T08:47:18Z</time>
      </trkpt>
      <trkpt lat="45.0097" lon="5.76314">
        <ele>1014.81</ele>
        <time>2024-07-09T08:47:44Z</time>
      </trkpt>
      <trkpt lat="45.00976" lon="5.76326">
        <ele>1016.25</ele>
        <time>2024-07-09T08:47:58Z</time>
      </trkpt>
      <trkpt lat="45.00974" lon="5.76348">
        <ele>1017.21</ele>
        <time>2024-07-09T08:48:11Z</time>
      </trkpt>
      <trkpt lat="45.00975" lon="5.76365">
        <ele>1018.65</ele>
        <time>2024-07-09T08:48:24Z</time>
      </trkpt>
      <trkpt lat="45.00987" lon="5.7638">
        <ele>1021.06</ele>
        <time>2024-07-09T08:48:50Z</time>
      </trkpt>
      <trkpt lat="45.00997" lon="5.76404">
        <ele>1024.9</ele>
        <time>2024-07-09T08:49:20Z</time>
      </trkpt>
      <trkpt lat="45.01009" lon="5.76422">
        <ele>1027.31</ele>
        <time>2024-07-09T08:49:41Z</time>
      </trkpt>
      <trkpt lat="45.0102" lon="5.76438">
        <ele>1029.71</ele>
        <time>2024-07-09T08:50:03Z</time>
      </trkpt>
      <trkpt lat="45.01031" lon="5.76455">
        <ele>1032.11</ele>
        <time>2024-07-09T08:50:26Z</time>
      </trkpt>
      <trkpt lat="45.0104" lon="5.76471">
        <ele>1034.04</ele>
        <time>2024-07-09T08:50:50Z</time>
      </trkpt>
      <trkpt lat="45.01051" lon="5.76489">
        <ele>1036.92</ele>
        <time>2024-07-09T08:51:17Z</time>
      </trkpt>
      <trkpt lat="45.01065" lon="5.76499">
        <ele>1039.32</ele>
        <time>2024-07-09T08:51:48Z</time>
      </trkpt>
      <trkpt lat="45.0108" lon="5.76502">
        <ele>1040.76</ele>
        <time>2024-07-09T08:52:13Z</time>
      </trkpt>
      <trkpt lat="45.01098" lon="5.76505">
        <ele>1041.73</ele>
        <time>2024-07-09T08:52:41Z</time>
      </trkpt>
      <trkpt lat="45.01111" lon="5.76513">
        <ele>1042.69</ele>
        <time>2024-07-09T08:52:58Z</time>
      </trkpt>
      <trkpt lat="45.01119" lon="5.76522">
        <ele>1043.17</ele>
        <time>2024-07-09T08:53:11Z</time>
      </trkpt>
      <trkpt lat="45.01129" lon="5.76529">
        <ele>1045.09</ele>
        <time>2024-07-09T08:53:25Z</time>
      </trkpt>
      <trkpt lat="45.01138" lon="5.76536">
        <ele>1046.05</ele>
        <time>2024-07-09T08:53:38Z</time>
      </trkpt>
      <trkpt lat="45.01147" lon="5.76545">
        <ele>1047.01</ele>
        <time>2024-07-09T08:53:51Z</time>
      </trkpt>
      <trkpt lat="45.01161" lon="5.76558">
        <ele>1049.9</ele>
        <time>2024-07-09T08:54:18Z</time>
      </trkpt>
      <trkpt lat="45.0117" lon="5.76567">
        <ele>1050.86</ele>
        <time>2024-07-09T08:54:32Z</time>
      </trkpt>
      <trkpt lat="45.01184" lon="5.7658">
        <ele>1053.74</ele>
        <time>2024-07-09T08:54:55Z</time>
      </trkpt>
      <trkpt lat="45.0119" lon="5.76589">
        <ele>1054.7</ele>
        <time>2024-07-09T08:55:09Z</time>
      </trkpt>
      <trkpt lat="45.01195" lon="5.76601">
        <ele>1056.15</ele>
        <time>2024-07-09T08:55:21Z</time>
      </trkpt>
      <trkpt lat="45.012" lon="5.76612">
        <ele>1057.59</ele>
        <time>2024-07-09T08:55:34Z</time>
      </trkpt>
      <trkpt lat="45.01215" lon="5.76626">
        <ele>1060.95</ele>
        <time>2024-07-09T08:56:09Z</time>
      </trkpt>
      <trkpt lat="45.01227" lon="5.76635">
        <ele>1061.43</ele>
        <time>2024-07-09T08:56:21Z</time>
      </trkpt>
      <trkpt lat="45.01228" lon="5.76649">
        <ele>1063.36</ele>
        <time>2024-07-09T08:57:12Z</time>
      </trkpt>
      <trkpt lat="45.01229" lon="5.7667">
        <ele>1065.76</ele>
        <time>2024-07-09T08:57:37Z</time>
      </trkpt>
      <trkpt lat="45.01227" lon="5.76693">
        <ele>1069.12</ele>
        <time>2024-07-09T08:58:06Z</time>
      </trkpt>
      <trkpt lat="45.01231" lon="5.76711">
        <ele>1071.53</ele>
        <time>2024-07-09T08:58:24Z</time>
      </trkpt>
      <trkpt lat="45.01234" lon="5.76723">
        <ele>1073.93</ele>
        <time>2024-07-09T08:58:41Z</time>
      </trkpt>
      <trkpt lat="45.01227" lon="5.76745">
        <ele>1077.29</ele>
        <time>2024-07-09T08:59:10Z</time>
      </trkpt>
      <trkpt lat="45.01225" lon="5.7677">
        <ele>1081.62</ele>
        <time>2024-07-09T08:59:43Z</time>
      </trkpt>
      <trkpt lat="45.01218" lon="5.76777">
        <ele>1084.02</ele>
        <time>2024-07-09T08:59:59Z</time>
      </trkpt>
      <trkpt lat="45.01219" lon="5.76794">
        <ele>1085.47</ele>
        <time>2024-07-09T09:00:17Z</time>
      </trkpt>
      <trkpt lat="45.01218" lon="5.76798">
        <ele>1085.95</ele>
        <time>2024-07-09T09:01:33Z</time>
      </trkpt>
      <trkpt lat="45.01214" lon="5.76787">
        <ele>1086.91</ele>
        <time>2024-07-09T09:02:22Z</time>
      </trkpt>
      <trkpt lat="45.01187" lon="5.76764">
        <ele>1088.83</ele>
        <time>2024-07-09T09:02:45Z</time>
      </trkpt>
      <trkpt lat="45.01171" lon="5.76751">
        <ele>1091.71</ele>
        <time>2024-07-09T09:03:08Z</time>
      </trkpt>
      <trkpt lat="45.01154" lon="5.76742">
        <ele>1093.64</ele>
        <time>2024-07-09T09:03:30Z</time>
      </trkpt>
      <trkpt lat="45.01139" lon="5.76735">
        <ele>1096.04</ele>
        <time>2024-07-09T09:03:54Z</time>
      </trkpt>
      <trkpt lat="45.01117" lon="5.76738">
        <ele>1098.44</ele>
        <time>2024-07-09T09:04:18Z</time>
      </trkpt>
      <trkpt lat="45.01106" lon="5.7674">
        <ele>1099.4</ele>
        <time>2024-07-09T09:04:38Z</time>
      </trkpt>
      <trkpt lat="45.01095" lon="5.76739">
        <ele>1100.37</ele>
        <time>2024-07-09T09:04:56Z</time>
      </trkpt>
      <trkpt lat="45.01069" lon="5.76727">
        <ele>1101.81</ele>
        <time>2024-07-09T09:05:20Z</time>
      </trkpt>
      <trkpt lat="45.01046" lon="5.76725">
        <ele>1103.73</ele>
        <time>2024-07-09T09:05:45Z</time>
      </trkpt>
      <trkpt lat="45.01035" lon="5.76715">
        <ele>1104.69</ele>
        <time>2024-07-09T09:06:10Z</time>
      </trkpt>
      <trkpt lat="45.01017" lon="5.76715">
        <ele>1104.69</ele>
        <time>2024-07-09T09:06:32Z</time>
      </trkpt>
      <trkpt lat="45.00995" lon="5.76711">
        <ele>1104.69</ele>
        <time>2024-07-09T09:06:55Z</time>
      </trkpt>
      <trkpt lat="45.00982" lon="5.76697">
        <ele>1104.69</ele>
        <time>2024-07-09T09:07:17Z</time>
      </trkpt>
      <trkpt lat="45.00966" lon="5.7668">
        <ele>1103.25</ele>
        <time>2024-07-09T09:07:38Z</time>
      </trkpt>
      <trkpt lat="45.00944" lon="5.76658">
        <ele>1104.21</ele>
        <time>2024-07-09T09:08:03Z</time>
      </trkpt>
      <trkpt lat="45.00925" lon="5.76644">
        <ele>1105.65</ele>
        <time>2024-07-09T09:08:25Z</time>
      </trkpt>
      <trkpt lat="45.0091" lon="5.76639">
        <ele>1107.1</ele>
        <time>2024-07-09T09:08:46Z</time>
      </trkpt>
      <trkpt lat="45.00882" lon="5.76633">
        <ele>1108.06</ele>
        <time>2024-07-09T09:09:08Z</time>
      </trkpt>
      <trkpt lat="45.00864" lon="5.76615">
        <ele>1108.54</ele>
        <time>2024-07-09T09:09:29Z</time>
      </trkpt>
      <trkpt lat="45.00848" lon="5.76606">
        <ele>1108.54</ele>
        <time>2024-07-09T09:09:50Z</time>
      </trkpt>
      <trkpt lat="45.0083" lon="5.76604">
        <ele>1109.5</ele>
        <time>2024-07-09T09:10:12Z</time>
      </trkpt>
      <trkpt lat="45.00805" lon="5.76595">
        <ele>1109.5</ele>
        <time>2024-07-09T09:10:35Z</time>
      </trkpt>
      <trkpt lat="45.00785" lon="5.76586">
        <ele>1109.98</ele>
        <time>2024-07-09T09:10:58Z</time>
      </trkpt>
      <trkpt lat="45.00756" lon="5.7657">
        <ele>1110.94</ele>
        <time>2024-07-09T09:11:22Z</time>
      </trkpt>
      <trkpt lat="45.0074" lon="5.76565">
        <ele>1110.46</ele>
        <time>2024-07-09T09:11:47Z</time>
      </trkpt>
      <trkpt lat="45.00716" lon="5.7656">
        <ele>1109.98</ele>
        <time>2024-07-09T09:12:09Z</time>
      </trkpt>
      <trkpt lat="45.00697" lon="5.76562">
        <ele>1109.98</ele>
        <time>2024-07-09T09:12:28Z</time>
      </trkpt>
      <trkpt lat="45.00677" lon="5.76563">
        <ele>1108.06</ele>
        <time>2024-07-09T09:12:48Z</time>
      </trkpt>
      <trkpt lat="45.00662" lon="5.76558">
        <ele>1107.58</ele>
        <time>2024-07-09T09:13:12Z</time>
      </trkpt>
      <trkpt lat="45.00641" lon="5.76554">
        <ele>1107.1</ele>
        <time>2024-07-09T09:13:33Z</time>
      </trkpt>
      <trkpt lat="45.00625" lon="5.76569">
        <ele>1108.06</ele>
        <time>2024-07-09T09:13:56Z</time>
      </trkpt>
      <trkpt lat="45.00585" lon="5.76574">
        <ele>1108.54</ele>
        <time>2024-07-09T09:14:18Z</time>
      </trkpt>
      <trkpt lat="45.00553" lon="5.76572">
        <ele>1110.46</ele>
        <time>2024-07-09T09:14:41Z</time>
      </trkpt>
      <trkpt lat="45.00535" lon="5.76575">
        <ele>1111.9</ele>
        <time>2024-07-09T09:15:03Z</time>
      </trkpt>
      <trkpt lat="45.00504" lon="5.7657">
        <ele>1110.46</ele>
        <time>2024-07-09T09:15:29Z</time>
      </trkpt>
      <trkpt lat="45.00485" lon="5.7657">
        <ele>1108.54</ele>
        <time>2024-07-09T09:15:53Z</time>
      </trkpt>
      <trkpt lat="45.00458" lon="5.76557">
        <ele>1107.58</ele>
        <time>2024-07-09T09:16:18Z</time>
      </trkpt>
      <trkpt lat="45.0044" lon="5.76547">
        <ele>1106.61</ele>
        <time>2024-07-09T09:16:44Z</time>
      </trkpt>
      <trkpt lat="45.00418" lon="5.76535">
        <ele>1104.21</ele>
        <time>2024-07-09T09:17:08Z</time>
      </trkpt>
      <trkpt lat="45.00393" lon="5.76522">
        <ele>1100.85</ele>
        <time>2024-07-09T09:17:30Z</time>
      </trkpt>
      <trkpt lat="45.00377" lon="5.76519">
        <ele>1098.44</ele>
        <time>2024-07-09T09:17:50Z</time>
      </trkpt>
      <trkpt lat="45.00366" lon="5.76515">
        <ele>1095.56</ele>
        <time>2024-07-09T09:18:10Z</time>
      </trkpt>
      <trkpt lat="45.00348" lon="5.76511">
        <ele>1092.2</ele>
        <time>2024-07-09T09:18:31Z</time>
      </trkpt>
      <trkpt lat="45.00327" lon="5.76498">
        <ele>1088.83</ele>
        <time>2024-07-09T09:18:54Z</time>
      </trkpt>
      <trkpt lat="45.00302" lon="5.7649">
        <ele>1087.39</ele>
        <time>2024-07-09T09:19:16Z</time>
      </trkpt>
      <trkpt lat="45.00274" lon="5.7648">
        <ele>1085.95</ele>
        <time>2024-07-09T09:19:39Z</time>
      </trkpt>
      <trkpt lat="45.00247" lon="5.7647">
        <ele>1084.02</ele>
        <time>2024-07-09T09:20:01Z</time>
      </trkpt>
      <trkpt lat="45.00223" lon="5.76463">
        <ele>1083.54</ele>
        <time>2024-07-09T09:20:24Z</time>
      </trkpt>
      <trkpt lat="45.002" lon="5.76442">
        <ele>1084.5</ele>
        <time>2024-07-09T09:20:47Z</time>
      </trkpt>
      <trkpt lat="45.00173" lon="5.76432">
        <ele>1084.5</ele>
        <time>2024-07-09T09:21:10Z</time>
      </trkpt>
      <trkpt lat="45.00159" lon="5.76427">
        <ele>1085.47</ele>
        <time>2024-07-09T09:21:36Z</time>
      </trkpt>
      <trkpt lat="45.00135" lon="5.76418">
        <ele>1085.47</ele>
        <time>2024-07-09T09:21:58Z</time>
      </trkpt>
      <trkpt lat="45.00112" lon="5.76415">
        <ele>1085.95</ele>
        <time>2024-07-09T09:22:22Z</time>
      </trkpt>
      <trkpt lat="45.00084" lon="5.76409">
        <ele>1086.91</ele>
        <time>2024-07-09T09:22:44Z</time>
      </trkpt>
      <trkpt lat="45.00067" lon="5.76407">
        <ele>1088.83</ele>
        <time>2024-07-09T09:23:06Z</time>
      </trkpt>
      <trkpt lat="45.0003" lon="5.764">
        <ele>1090.27</ele>
        <time>2024-07-09T09:23:49Z</time>
      </trkpt>
      <trkpt lat="45.00013" lon="5.76392">
        <ele>1091.23</ele>
        <time>2024-07-09T09:24:12Z</time>
      </trkpt>
      <trkpt lat="44.99994" lon="5.76387">
        <ele>1091.23</ele>
        <time>2024-07-09T09:24:33Z</time>
      </trkpt>
      <trkpt lat="44.99962" lon="5.76391">
        <ele>1092.68</ele>
        <time>2024-07-09T09:24:57Z</time>
      </trkpt>
      <trkpt lat="44.99937" lon="5.76387">
        <ele>1095.08</ele>
        <time>2024-07-09T09:25:19Z</time>
      </trkpt>
      <trkpt lat="44.99918" lon="5.76382">
        <ele>1099.4</ele>
        <time>2024-07-09T09:26:01Z</time>
      </trkpt>
      <trkpt lat="44.99906" lon="5.76383">
        <ele>1101.33</ele>
        <time>2024-07-09T09:26:21Z</time>
      </trkpt>
      <trkpt lat="44.99895" lon="5.76381">
        <ele>1103.25</ele>
        <time>2024-07-09T09:26:41Z</time>
      </trkpt>
      <trkpt lat="44.99883" lon="5.76382">
        <ele>1105.65</ele>
        <time>2024-07-09T09:27:02Z</time>
      </trkpt>
      <trkpt lat="44.99873" lon="5.76378">
        <ele>1107.1</ele>
        <time>2024-07-09T09:27:20Z</time>
      </trkpt>
      <trkpt lat="44.99857" lon="5.76381">
        <ele>1109.5</ele>
        <time>2024-07-09T09:27:41Z</time>
      </trkpt>
      <trkpt lat="44.99841" lon="5.76379">
        <ele>1110.46</ele>
        <time>2024-07-09T09:27:59Z</time>
      </trkpt>
      <trkpt lat="44.99825" lon="5.76382">
        <ele>1110.94</ele>
        <time>2024-07-09T09:28:16Z</time>
      </trkpt>
      <trkpt lat="44.99815" lon="5.76376">
        <ele>1111.42</ele>
        <time>2024-07-09T09:28:29Z</time>
      </trkpt>
      <trkpt lat="44.99805" lon="5.76378">
        <ele>1112.38</ele>
        <time>2024-07-09T09:28:44Z</time>
      </trkpt>
      <trkpt lat="44.99791" lon="5.76378">
        <ele>1112.86</ele>
        <time>2024-07-09T09:29:05Z</time>
      </trkpt>
      <trkpt lat="44.99777" lon="5.76375">
        <ele>1112.86</ele>
        <time>2024-07-09T09:29:25Z</time>
      </trkpt>
      <trkpt lat="44.99781" lon="5.76381">
        <ele>1114.31</ele>
        <time>2024-07-09T09:30:08Z</time>
      </trkpt>
      <trkpt lat="44.99783" lon="5.76367">
        <ele>1113.82</ele>
        <time>2024-07-09T09:30:49Z</time>
      </trkpt>
      <trkpt lat="44.99769" lon="5.76361">
        <ele>1113.34</ele>
        <time>2024-07-09T09:31:16Z</time>
      </trkpt>
      <trkpt lat="44.9975" lon="5.76354">
        <ele>1112.38</ele>
        <time>2024-07-09T09:31:35Z</time>
      </trkpt>
      <trkpt lat="44.99731" lon="5.76349">
        <ele>1110.46</ele>
        <time>2024-07-09T09:31:55Z</time>
      </trkpt>
      <trkpt lat="44.99719" lon="5.76343">
        <ele>1109.5</ele>
        <time>2024-07-09T09:32:18Z</time>
      </trkpt>
      <trkpt lat="44.99704" lon="5.76343">
        <ele>1107.58</ele>
        <time>2024-07-09T09:32:39Z</time>
      </trkpt>
      <trkpt lat="44.99689" lon="5.76343">
        <ele>1105.65</ele>
        <time>2024-07-09T09:33:02Z</time>
      </trkpt>
      <trkpt lat="44.99678" lon="5.76341">
        <ele>1104.21</ele>
        <time>2024-07-09T09:33:24Z</time>
      </trkpt>
      <trkpt lat="44.99665" lon="5.76334">
        <ele>1102.77</ele>
        <time>2024-07-09T09:33:47Z</time>
      </trkpt>
      <trkpt lat="44.9965" lon="5.76332">
        <ele>1099.89</ele>
        <time>2024-07-09T09:34:13Z</time>
      </trkpt>
      <trkpt lat="44.99637" lon="5.76322">
        <ele>1097</ele>
        <time>2024-07-09T09:34:34Z</time>
      </trkpt>
      <trkpt lat="44.99618" lon="5.76317">
        <ele>1094.12</ele>
        <time>2024-07-09T09:34:58Z</time>
      </trkpt>
      <trkpt lat="44.99609" lon="5.76319">
        <ele>1090.75</ele>
        <time>2024-07-09T09:35:21Z</time>
      </trkpt>
      <trkpt lat="44.99585" lon="5.76309">
        <ele>1087.87</ele>
        <time>2024-07-09T09:35:45Z</time>
      </trkpt>
      <trkpt lat="44.99568" lon="5.76304">
        <ele>1085.47</ele>
        <time>2024-07-09T09:36:06Z</time>
      </trkpt>
      <trkpt lat="44.99554" lon="5.76307">
        <ele>1085.47</ele>
        <time>2024-07-09T09:36:28Z</time>
      </trkpt>
      <trkpt lat="44.99542" lon="5.76308">
        <ele>1083.54</ele>
        <time>2024-07-09T09:37:03Z</time>
      </trkpt>
      <trkpt lat="44.99529" lon="5.76305">
        <ele>1082.58</ele>
        <time>2024-07-09T09:37:18Z</time>
      </trkpt>
      <trkpt lat="44.9952" lon="5.76304">
        <ele>1081.14</ele>
        <time>2024-07-09T09:37:30Z</time>
      </trkpt>
      <trkpt lat="44.99503" lon="5.76303">
        <ele>1079.7</ele>
        <time>2024-07-09T09:37:46Z</time>
      </trkpt>
      <trkpt lat="44.99493" lon="5.76309">
        <ele>1077.78</ele>
        <time>2024-07-09T09:38:01Z</time>
      </trkpt>
      <trkpt lat="44.99484" lon="5.76323">
        <ele>1077.29</ele>
        <time>2024-07-09T09:38:17Z</time>
      </trkpt>
      <trkpt lat="44.9949" lon="5.76313">
        <ele>1077.29</ele>
        <time>2024-07-09T09:38:42Z</time>
      </trkpt>
      <trkpt lat="44.99498" lon="5.76303">
        <ele>1077.29</ele>
        <time>2024-07-09T09:38:49Z</time>
      </trkpt>
      <trkpt lat="44.99498" lon="5.76288">
        <ele>1077.78</ele>
        <time>2024-07-09T09:39:10Z</time>
      </trkpt>
      <trkpt lat="44.99485" lon="5.76274">
        <ele>1076.81</ele>
        <time>2024-07-09T09:39:31Z</time>
      </trkpt>
      <trkpt lat="44.99461" lon="5.7626">
        <ele>1076.33</ele>
        <time>2024-07-09T09:39:48Z</time>
      </trkpt>
      <trkpt lat="44.99472" lon="5.76259">
        <ele>1072.97</ele>
        <time>2024-07-09T09:40:19Z</time>
      </trkpt>
      <trkpt lat="44.99476" lon="5.76246">
        <ele>1071.05</ele>
        <time>2024-07-09T09:41:05Z</time>
      </trkpt>
      <trkpt lat="44.99472" lon="5.76228">
        <ele>1067.68</ele>
        <time>2024-07-09T09:41:39Z</time>
      </trkpt>
      <trkpt lat="44.99479" lon="5.76212">
        <ele>1063.84</ele>
        <time>2024-07-09T09:42:06Z</time>
      </trkpt>
      <trkpt lat="44.99492" lon="5.7621">
        <ele>1061.43</ele>
        <time>2024-07-09T09:42:23Z</time>
      </trkpt>
      <trkpt lat="44.99509" lon="5.76196">
        <ele>1060.47</ele>
        <time>2024-07-09T09:42:40Z</time>
      </trkpt>
      <trkpt lat="44.99524" lon="5.76199">
        <ele>1059.99</ele>
        <time>2024-07-09T09:42:56Z</time>
      </trkpt>
      <trkpt lat="44.99543" lon="5.76191">
        <ele>1059.03</ele>
        <time>2024-07-09T09:43:13Z</time>
      </trkpt>
      <trkpt lat="44.99562" lon="5.76198">
        <ele>1057.11</ele>
        <time>2024-07-09T09:43:33Z</time>
      </trkpt>
      <trkpt lat="44.99574" lon="5.76189">
        <ele>1055.18</ele>
        <time>2024-07-09T09:43:51Z</time>
      </trkpt>
      <trkpt lat="44.99579" lon="5.76173">
        <ele>1053.74</ele>
        <time>2024-07-09T09:44:08Z</time>
      </trkpt>
      <trkpt lat="44.99586" lon="5.76151">
        <ele>1051.34</ele>
        <time>2024-07-09T09:44:27Z</time>
      </trkpt>
      <trkpt lat="44.99592" lon="5.7614">
        <ele>1049.9</ele>
        <time>2024-07-09T09:44:44Z</time>
      </trkpt>
      <trkpt lat="44.99597" lon="5.76127">
        <ele>1048.45</ele>
        <time>2024-07-09T09:44:59Z</time>
      </trkpt>
      <trkpt lat="44.99602" lon="5.76116">
        <ele>1047.49</ele>
        <time>2024-07-09T09:45:14Z</time>
      </trkpt>
      <trkpt lat="44.99611" lon="5.76093">
        <ele>1046.05</ele>
        <time>2024-07-09T09:45:31Z</time>
      </trkpt>
      <trkpt lat="44.99616" lon="5.76079">
        <ele>1044.61</ele>
        <time>2024-07-09T09:45:47Z</time>
      </trkpt>
      <trkpt lat="44.99621" lon="5.76057">
        <ele>1042.69</ele>
        <time>2024-07-09T09:46:04Z</time>
      </trkpt>
      <trkpt lat="44.99626" lon="5.76035">
        <ele>1040.76</ele>
        <time>2024-07-09T09:46:35Z</time>
      </trkpt>
      <trkpt lat="44.99628" lon="5.76008">
        <ele>1039.32</ele>
        <time>2024-07-09T09:46:52Z</time>
      </trkpt>
      <trkpt lat="44.99632" lon="5.75995">
        <ele>1038.84</ele>
        <time>2024-07-09T09:47:06Z</time>
      </trkpt>
      <trkpt lat="44.99639" lon="5.75983">
        <ele>1037.88</ele>
        <time>2024-07-09T09:47:35Z</time>
      </trkpt>
      <trkpt lat="44.99646" lon="5.75963">
        <ele>1036.44</ele>
        <time>2024-07-09T09:48:16Z</time>
      </trkpt>
      <trkpt lat="44.99653" lon="5.75955">
        <ele>1035.48</ele>
        <time>2024-07-09T09:48:35Z</time>
      </trkpt>
      <trkpt lat="44.99663" lon="5.75945">
        <ele>1034.04</ele>
        <time>2024-07-09T09:48:55Z</time>
      </trkpt>
      <trkpt lat="44.99675" lon="5.75935">
        <ele>1031.63</ele>
        <time>2024-07-09T09:49:20Z</time>
      </trkpt>
      <trkpt lat="44.99687" lon="5.75926">
        <ele>1030.67</ele>
        <time>2024-07-09T09:49:39Z</time>
      </trkpt>
      <trkpt lat="44.99703" lon="5.75907">
        <ele>1028.27</ele>
        <time>2024-07-09T09:50:02Z</time>
      </trkpt>
      <trkpt lat="44.99715" lon="5.75896">
        <ele>1024.9</ele>
        <time>2024-07-09T09:50:25Z</time>
      </trkpt>
      <trkpt lat="44.9972" lon="5.75882">
        <ele>1022.98</ele>
        <time>2024-07-09T09:50:45Z</time>
      </trkpt>
      <trkpt lat="44.99728" lon="5.75872">
        <ele>1020.58</ele>
        <time>2024-07-09T09:51:04Z</time>
      </trkpt>
      <trkpt lat="44.99737" lon="5.75863">
        <ele>1017.21</ele>
        <time>2024-07-09T09:51:29Z</time>
      </trkpt>
      <trkpt lat="44.99747" lon="5.75849">
        <ele>1015.77</ele>
        <time>2024-07-09T09:51:50Z</time>
      </trkpt>
      <trkpt lat="44.99756" lon="5.75835">
        <ele>1013.85</ele>
        <time>2024-07-09T09:52:11Z</time>
      </trkpt>
      <trkpt lat="44.99782" lon="5.75842">
        <ele>1009.04</ele>
        <time>2024-07-09T09:52:55Z</time>
      </trkpt>
      <trkpt lat="44.99805" lon="5.7583">
        <ele>1007.6</ele>
        <time>2024-07-09T09:53:17Z</time>
      </trkpt>
      <trkpt lat="44.9982" lon="5.75825">
        <ele>1005.2</ele>
        <time>2024-07-09T09:53:35Z</time>
      </trkpt>
      <trkpt lat="44.99838" lon="5.75818">
        <ele>1003.27</ele>
        <time>2024-07-09T09:54:00Z</time>
      </trkpt>
      <trkpt lat="44.99868" lon="5.75822">
        <ele>1001.35</ele>
        <time>2024-07-09T09:54:23Z</time>
      </trkpt>
      <trkpt lat="44.99884" lon="5.75825">
        <ele>999.43</ele>
        <time>2024-07-09T09:54:45Z</time>
      </trkpt>
      <trkpt lat="44.99902" lon="5.75836">
        <ele>996.54</ele>
        <time>2024-07-09T09:55:08Z</time>
      </trkpt>
      <trkpt lat="44.99924" lon="5.75844">
        <ele>994.62</ele>
        <time>2024-07-09T09:55:30Z</time>
      </trkpt>
      <trkpt lat="44.99946" lon="5.75843">
        <ele>992.22</ele>
        <time>2024-07-09T09:56:12Z</time>
      </trkpt>
      <trkpt lat="44.99959" lon="5.75823">
        <ele>991.74</ele>
        <time>2024-07-09T09:56:32Z</time>
      </trkpt>
      <trkpt lat="44.99966" lon="5.7581">
        <ele>991.26</ele>
        <time>2024-07-09T09:56:44Z</time>
      </trkpt>
      <trkpt lat="44.99969" lon="5.75798">
        <ele>990.78</ele>
        <time>2024-07-09T09:56:57Z</time>
      </trkpt>
      <trkpt lat="44.99973" lon="5.75809">
        <ele>991.26</ele>
        <time>2024-07-09T09:57:31Z</time>
      </trkpt>
      <trkpt lat="44.99998" lon="5.75821">
        <ele>990.3</ele>
        <time>2024-07-09T09:57:49Z</time>
      </trkpt>
      <trkpt lat="45.00017" lon="5.75827">
        <ele>990.78</ele>
        <time>2024-07-09T09:58:08Z</time>
      </trkpt>
      <trkpt lat="45.0003" lon="5.75848">
        <ele>990.3</ele>
        <time>2024-07-09T09:58:28Z</time>
      </trkpt>
      <trkpt lat="45.00051" lon="5.75825">
        <ele>990.3</ele>
        <time>2024-07-09T09:58:47Z</time>
      </trkpt>
      <trkpt lat="45.00063" lon="5.75792">
        <ele>989.81</ele>
        <time>2024-07-09T09:59:09Z</time>
      </trkpt>
      <trkpt lat="45.00073" lon="5.75756">
        <ele>989.81</ele>
        <time>2024-07-09T09:59:33Z</time>
      </trkpt>
      <trkpt lat="45.00084" lon="5.75725">
        <ele>989.81</ele>
        <time>2024-07-09T09:59:55Z</time>
      </trkpt>
      <trkpt lat="45.00089" lon="5.75703">
        <ele>989.33</ele>
        <time>2024-07-09T10:00:06Z</time>
      </trkpt>
      <trkpt lat="45.00093" lon="5.75685">
        <ele>989.33</ele>
        <time>2024-07-09T10:00:16Z</time>
      </trkpt>
      <trkpt lat="45.00096" lon="5.75663">
        <ele>988.85</ele>
        <time>2024-07-09T10:00:31Z</time>
      </trkpt>
      <trkpt lat="45.00089" lon="5.75646">
        <ele>988.85</ele>
        <time>2024-07-09T10:00:47Z</time>
      </trkpt>
      <trkpt lat="45.00093" lon="5.75627">
        <ele>987.89</ele>
        <time>2024-07-09T10:01:35Z</time>
      </trkpt>
      <trkpt lat="45.00084" lon="5.75619">
        <ele>987.89</ele>
        <time>2024-07-09T10:02:01Z</time>
      </trkpt>
      <trkpt lat="45.00085" lon="5.75632">
        <ele>987.89</ele>
        <time>2024-07-09T10:02:32Z</time>
      </trkpt>
      <trkpt lat="45.00088" lon="5.75617">
        <ele>987.89</ele>
        <time>2024-07-09T10:02:44Z</time>
      </trkpt>
      <trkpt lat="45.0009" lon="5.75614">
        <ele>987.89</ele>
        <time>2024-07-09T10:03:19Z</time>
      </trkpt>
      <trkpt lat="45.00107" lon="5.75582">
        <ele>988.37</ele>
        <time>2024-07-09T10:03:41Z</time>
      </trkpt>
      <trkpt lat="45.00123" lon="5.75551">
        <ele>988.37</ele>
        <time>2024-07-09T10:04:04Z</time>
      </trkpt>
      <trkpt lat="45.00132" lon="5.7551">
        <ele>989.81</ele>
        <time>2024-07-09T10:04:29Z</time>
      </trkpt>
      <trkpt lat="45.00124" lon="5.7549">
        <ele>990.3</ele>
        <time>2024-07-09T10:04:42Z</time>
      </trkpt>
      <trkpt lat="45.00121" lon="5.75475">
        <ele>990.78</ele>
        <time>2024-07-09T10:04:55Z</time>
      </trkpt>
      <trkpt lat="45.00108" lon="5.75456">
        <ele>990.78</ele>
        <time>2024-07-09T10:05:12Z</time>
      </trkpt>
      <trkpt lat="45.00102" lon="5.75437">
        <ele>991.26</ele>
        <time>2024-07-09T10:05:26Z</time>
      </trkpt>
      <trkpt lat="45.00091" lon="5.75409">
        <ele>991.74</ele>
        <time>2024-07-09T10:05:46Z</time>
      </trkpt>
      <trkpt lat="45.00079" lon="5.75381">
        <ele>992.7</ele>
        <time>2024-07-09T10:06:06Z</time>
      </trkpt>
      <trkpt lat="45.00067" lon="5.75343">
        <ele>993.66</ele>
        <time>2024-07-09T10:06:30Z</time>
      </trkpt>
      <trkpt lat="45.00062" lon="5.75332">
        <ele>994.14</ele>
        <time>2024-07-09T10:06:39Z</time>
      </trkpt>
      <trkpt lat="45.00048" lon="5.75299">
        <ele>995.58</ele>
        <time>2024-07-09T10:07:03Z</time>
      </trkpt>
      <trkpt lat="45.00039" lon="5.75281">
        <ele>996.54</ele>
        <time>2024-07-09T10:07:18Z</time>
      </trkpt>
      <trkpt lat="45.00036" lon="5.75265">
        <ele>997.02</ele>
        <time>2024-07-09T10:07:31Z</time>
      </trkpt>
      <trkpt lat="45.00037" lon="5.75247">
        <ele>998.47</ele>
        <time>2024-07-09T10:07:45Z</time>
      </trkpt>
      <trkpt lat="45.00035" lon="5.75227">
        <ele>1000.39</ele>
        <time>2024-07-09T10:08:01Z</time>
      </trkpt>
      <trkpt lat="45.00031" lon="5.75208">
        <ele>1001.83</ele>
        <time>2024-07-09T10:08:17Z</time>
      </trkpt>
      <trkpt lat="45.00036" lon="5.75183">
        <ele>1002.79</ele>
        <time>2024-07-09T10:08:45Z</time>
      </trkpt>
      <trkpt lat="45.00043" lon="5.75171">
        <ele>1004.23</ele>
        <time>2024-07-09T10:08:58Z</time>
      </trkpt>
      <trkpt lat="45.00055" lon="5.75155">
        <ele>1005.68</ele>
        <time>2024-07-09T10:09:23Z</time>
      </trkpt>
      <trkpt lat="45.00063" lon="5.75144">
        <ele>1007.12</ele>
        <time>2024-07-09T10:09:39Z</time>
      </trkpt>
      <trkpt lat="45.00069" lon="5.75132">
        <ele>1008.56</ele>
        <time>2024-07-09T10:09:54Z</time>
      </trkpt>
      <trkpt lat="45.00076" lon="5.75116">
        <ele>1010.48</ele>
        <time>2024-07-09T10:10:25Z</time>
      </trkpt>
      <trkpt lat="45.00093" lon="5.75108">
        <ele>1012.89</ele>
        <time>2024-07-09T10:10:53Z</time>
      </trkpt>
      <trkpt lat="45.00103" lon="5.75111">
        <ele>1014.33</ele>
        <time>2024-07-09T10:11:07Z</time>
      </trkpt>
      <trkpt lat="45.00119" lon="5.75122">
        <ele>1017.21</ele>
        <time>2024-07-09T10:11:35Z</time>
      </trkpt>
      <trkpt lat="45.0014" lon="5.75132">
        <ele>1020.1</ele>
        <time>2024-07-09T10:12:08Z</time>
      </trkpt>
      <trkpt lat="45.00147" lon="5.75149">
        <ele>1020.58</ele>
        <time>2024-07-09T10:12:51Z</time>
      </trkpt>
      <trkpt lat="45.00154" lon="5.7516">
        <ele>1021.06</ele>
        <time>2024-07-09T10:13:12Z</time>
      </trkpt>
      <trkpt lat="45.00175" lon="5.7517">
        <ele>1022.5</ele>
        <time>2024-07-09T10:13:46Z</time>
      </trkpt>
      <trkpt lat="45.00185" lon="5.75172">
        <ele>1024.42</ele>
        <time>2024-07-09T10:14:02Z</time>
      </trkpt>
      <trkpt lat="45.00205" lon="5.75176">
        <ele>1025.86</ele>
        <time>2024-07-09T10:14:22Z</time>
      </trkpt>
      <trkpt lat="45.00214" lon="5.75186">
        <ele>1027.79</ele>
        <time>2024-07-09T10:14:47Z</time>
      </trkpt>
      <trkpt lat="45.00238" lon="5.75187">
        <ele>1030.67</ele>
        <time>2024-07-09T10:15:13Z</time>
      </trkpt>
      <trkpt lat="45.0025" lon="5.75193">
        <ele>1031.63</ele>
        <time>2024-07-09T10:15:29Z</time>
      </trkpt>
      <trkpt lat="45.00262" lon="5.75208">
        <ele>1033.55</ele>
        <time>2024-07-09T10:15:50Z</time>
      </trkpt>
      <trkpt lat="45.00273" lon="5.75209">
        <ele>1034.52</ele>
        <time>2024-07-09T10:16:05Z</time>
      </trkpt>
      <trkpt lat="45.00286" lon="5.75212">
        <ele>1035.48</ele>
        <time>2024-07-09T10:16:21Z</time>
      </trkpt>
      <trkpt lat="45.00298" lon="5.75213">
        <ele>1036.92</ele>
        <time>2024-07-09T10:16:36Z</time>
      </trkpt>
      <trkpt lat="45.00309" lon="5.75218">
        <ele>1038.36</ele>
        <time>2024-07-09T10:16:52Z</time>
      </trkpt>
      <trkpt lat="45.00324" lon="5.75225">
        <ele>1040.28</ele>
        <time>2024-07-09T10:17:11Z</time>
      </trkpt>
      <trkpt lat="45.00337" lon="5.75226">
        <ele>1041.25</ele>
        <time>2024-07-09T10:17:27Z</time>
      </trkpt>
      <trkpt lat="45.00346" lon="5.75231">
        <ele>1042.21</ele>
        <time>2024-07-09T10:17:43Z</time>
      </trkpt>
      <trkpt lat="45.00357" lon="5.75242">
        <ele>1044.13</ele>
        <time>2024-07-09T10:18:02Z</time>
      </trkpt>
      <trkpt lat="45.00367" lon="5.75249">
        <ele>1045.57</ele>
        <time>2024-07-09T10:18:19Z</time>
      </trkpt>
      <trkpt lat="45.00375" lon="5.75256">
        <ele>1046.53</ele>
        <time>2024-07-09T10:18:37Z</time>
      </trkpt>
      <trkpt lat="45.00385" lon="5.75269">
        <ele>1048.45</ele>
        <time>2024-07-09T10:18:53Z</time>
      </trkpt>
      <trkpt lat="45.00403" lon="5.75279">
        <ele>1050.86</ele>
        <time>2024-07-09T10:19:18Z</time>
      </trkpt>
      <trkpt lat="45.00413" lon="5.75281">
        <ele>1050.86</ele>
        <time>2024-07-09T10:19:38Z</time>
      </trkpt>
      <trkpt lat="45.00422" lon="5.75275">
        <ele>1051.34</ele>
        <time>2024-07-09T10:20:54Z</time>
      </trkpt>
      <trkpt lat="45.00433" lon="5.75275">
        <ele>1052.3</ele>
        <time>2024-07-09T10:21:07Z</time>
      </trkpt>
      <trkpt lat="45.00442" lon="5.75279">
        <ele>1053.26</ele>
        <time>2024-07-09T10:21:20Z</time>
      </trkpt>
      <trkpt lat="45.00458" lon="5.75257">
        <ele>1056.63</ele>
        <time>2024-07-09T10:22:07Z</time>
      </trkpt>
      <trkpt lat="45.00452" lon="5.75267">
        <ele>1055.18</ele>
        <time>2024-07-09T10:22:16Z</time>
      </trkpt>
      <trkpt lat="45.00454" lon="5.75267">
        <ele>1054.22</ele>
        <time>2024-07-09T10:23:01Z</time>
      </trkpt>
      <trkpt lat="45.0046" lon="5.75254">
        <ele>1056.15</ele>
        <time>2024-07-09T10:23:17Z</time>
      </trkpt>
      <trkpt lat="45.00481" lon="5.75256">
        <ele>1058.07</ele>
        <time>2024-07-09T10:23:51Z</time>
      </trkpt>
      <trkpt lat="45.0049" lon="5.7525">
        <ele>1059.51</ele>
        <time>2024-07-09T10:24:11Z</time>
      </trkpt>
      <trkpt lat="45.005" lon="5.75232">
        <ele>1059.99</ele>
        <time>2024-07-09T11:04:29Z</time>
      </trkpt>
      <trkpt lat="45.00502" lon="5.75257">
        <ele>1060.95</ele>
        <time>2024-07-09T11:04:46Z</time>
      </trkpt>
      <trkpt lat="45.00494" lon="5.75279">
        <ele>1057.59</ele>
        <time>2024-07-09T11:05:02Z</time>
      </trkpt>
      <trkpt lat="45.00488" lon="5.75299">
        <ele>1056.15</ele>
        <time>2024-07-09T11:05:19Z</time>
      </trkpt>
      <trkpt lat="45.00499" lon="5.7531">
        <ele>1054.7</ele>
        <time>2024-07-09T11:05:46Z</time>
      </trkpt>
      <trkpt lat="45.00515" lon="5.75307">
        <ele>1054.7</ele>
        <time>2024-07-09T11:06:02Z</time>
      </trkpt>
      <trkpt lat="45.00533" lon="5.7531">
        <ele>1055.67</ele>
        <time>2024-07-09T11:06:21Z</time>
      </trkpt>
      <trkpt lat="45.00549" lon="5.75311">
        <ele>1056.63</ele>
        <time>2024-07-09T11:06:38Z</time>
      </trkpt>
      <trkpt lat="45.00561" lon="5.75312">
        <ele>1058.07</ele>
        <time>2024-07-09T11:07:04Z</time>
      </trkpt>
      <trkpt lat="45.00573" lon="5.75328">
        <ele>1058.07</ele>
        <time>2024-07-09T11:07:18Z</time>
      </trkpt>
      <trkpt lat="45.00584" lon="5.75343">
        <ele>1058.07</ele>
        <time>2024-07-09T11:07:31Z</time>
      </trkpt>
      <trkpt lat="45.00592" lon="5.75355">
        <ele>1056.63</ele>
        <time>2024-07-09T11:07:47Z</time>
      </trkpt>
      <trkpt lat="45.0061" lon="5.75371">
        <ele>1056.63</ele>
        <time>2024-07-09T11:08:05Z</time>
      </trkpt>
      <trkpt lat="45.00626" lon="5.75392">
        <ele>1056.15</ele>
        <time>2024-07-09T11:08:23Z</time>
      </trkpt>
      <trkpt lat="45.00644" lon="5.75412">
        <ele>1055.67</ele>
        <time>2024-07-09T11:08:43Z</time>
      </trkpt>
      <trkpt lat="45.00657" lon="5.75431">
        <ele>1056.15</ele>
        <time>2024-07-09T11:09:02Z</time>
      </trkpt>
      <trkpt lat="45.00674" lon="5.75449">
        <ele>1055.67</ele>
        <time>2024-07-09T11:09:23Z</time>
      </trkpt>
      <trkpt lat="45.00691" lon="5.75467">
        <ele>1055.18</ele>
        <time>2024-07-09T11:09:42Z</time>
      </trkpt>
      <trkpt lat="45.00703" lon="5.75477">
        <ele>1055.18</ele>
        <time>2024-07-09T11:09:55Z</time>
      </trkpt>
      <trkpt lat="45.00719" lon="5.75491">
        <ele>1054.7</ele>
        <time>2024-07-09T11:10:13Z</time>
      </trkpt>
      <trkpt lat="45.00735" lon="5.75499">
        <ele>1054.7</ele>
        <time>2024-07-09T11:10:28Z</time>
      </trkpt>
      <trkpt lat="45.00757" lon="5.7551">
        <ele>1054.7</ele>
        <time>2024-07-09T11:10:47Z</time>
      </trkpt>
      <trkpt lat="45.00777" lon="5.75521">
        <ele>1054.22</ele>
        <time>2024-07-09T11:11:04Z</time>
      </trkpt>
      <trkpt lat="45.00802" lon="5.75543">
        <ele>1052.3</ele>
        <time>2024-07-09T11:11:27Z</time>
      </trkpt>
      <trkpt lat="45.00818" lon="5.75556">
        <ele>1050.86</ele>
        <time>2024-07-09T11:11:41Z</time>
      </trkpt>
      <trkpt lat="45.00846" lon="5.75566">
        <ele>1049.42</ele>
        <time>2024-07-09T11:12:05Z</time>
      </trkpt>
      <trkpt lat="45.00863" lon="5.75573">
        <ele>1047.97</ele>
        <time>2024-07-09T11:12:22Z</time>
      </trkpt>
      <trkpt lat="45.00887" lon="5.75581">
        <ele>1047.49</ele>
        <time>2024-07-09T11:12:40Z</time>
      </trkpt>
      <trkpt lat="45.00909" lon="5.75592">
        <ele>1047.49</ele>
        <time>2024-07-09T11:13:00Z</time>
      </trkpt>
      <trkpt lat="45.00934" lon="5.756">
        <ele>1047.49</ele>
        <time>2024-07-09T11:13:21Z</time>
      </trkpt>
      <trkpt lat="45.00955" lon="5.75614">
        <ele>1047.49</ele>
        <time>2024-07-09T11:13:40Z</time>
      </trkpt>
      <trkpt lat="45.00976" lon="5.75631">
        <ele>1047.49</ele>
        <time>2024-07-09T11:13:59Z</time>
      </trkpt>
      <trkpt lat="45.01002" lon="5.75644">
        <ele>1046.53</ele>
        <time>2024-07-09T11:14:20Z</time>
      </trkpt>
      <trkpt lat="45.01026" lon="5.75655">
        <ele>1045.57</ele>
        <time>2024-07-09T11:14:40Z</time>
      </trkpt>
      <trkpt lat="45.01046" lon="5.75663">
        <ele>1045.09</ele>
        <time>2024-07-09T11:15:00Z</time>
      </trkpt>
      <trkpt lat="45.01073" lon="5.75667">
        <ele>1045.09</ele>
        <time>2024-07-09T11:15:20Z</time>
      </trkpt>
      <trkpt lat="45.01098" lon="5.75668">
        <ele>1045.09</ele>
        <time>2024-07-09T11:15:40Z</time>
      </trkpt>
      <trkpt lat="45.01121" lon="5.75668">
        <ele>1045.09</ele>
        <time>2024-07-09T11:15:59Z</time>
      </trkpt>
      <trkpt lat="45.01145" lon="5.7567">
        <ele>1045.09</ele>
        <time>2024-07-09T11:16:17Z</time>
      </trkpt>
      <trkpt lat="45.0117" lon="5.7568">
        <ele>1045.09</ele>
        <time>2024-07-09T11:16:40Z</time>
      </trkpt>
      <trkpt lat="45.01184" lon="5.75702">
        <ele>1047.01</ele>
        <time>2024-07-09T11:17:00Z</time>
      </trkpt>
      <trkpt lat="45.01201" lon="5.75712">
        <ele>1047.01</ele>
        <time>2024-07-09T11:17:23Z</time>
      </trkpt>
      <trkpt lat="45.01211" lon="5.75712">
        <ele>1047.01</ele>
        <time>2024-07-09T11:17:33Z</time>
      </trkpt>
      <trkpt lat="45.01222" lon="5.75717">
        <ele>1047.49</ele>
        <time>2024-07-09T11:17:43Z</time>
      </trkpt>
      <trkpt lat="45.01238" lon="5.75728">
        <ele>1047.49</ele>
        <time>2024-07-09T11:17:58Z</time>
      </trkpt>
      <trkpt lat="45.01248" lon="5.75733">
        <ele>1047.49</ele>
        <time>2024-07-09T11:18:06Z</time>
      </trkpt>
      <trkpt lat="45.01272" lon="5.75743">
        <ele>1045.57</ele>
        <time>2024-07-09T11:18:26Z</time>
      </trkpt>
      <trkpt lat="45.01287" lon="5.75762">
        <ele>1044.61</ele>
        <time>2024-07-09T11:18:49Z</time>
      </trkpt>
      <trkpt lat="45.01289" lon="5.75775">
        <ele>1044.61</ele>
        <time>2024-07-09T11:19:03Z</time>
      </trkpt>
    </trkseg>
  </trk>
</gpx>